Time;durP1;ratioP1;P1;durP2;ratioP2;P2;SDS_P1;SDS_P2;PMS_P1;PMS_P2;Temp;Humidity;BMP_temperature;BMP_pressure;BME280_temperature;BME280_humidity;BME280_pressure;Samples;Min_cycle;Max_cycle;Signal;HPM_P1;HPM_P2
2021/08/27 00:01:50;;;;;;;4.83;1.80;;;;;;;13.97;76.17;101287.56;2620244;54;20239;-79
2021/08/27 00:04:15;;;;;;;3.17;1.57;;;;;;;13.99;75.95;101281.59;2620419;54;20151;-79
2021/08/27 00:06:41;;;;;;;4.53;1.80;;;;;;;13.99;75.96;101278.16;2620547;46;20207;-78
2021/08/27 00:09:06;;;;;;;4.00;1.80;;;;;;;14.04;76.05;101274.78;2621607;39;20582;-78
2021/08/27 00:11:31;;;;;;;4.07;2.10;;;;;;;14.12;75.49;101275.75;2619501;47;20142;-79
2021/08/27 00:13:56;;;;;;;4.40;1.80;;;;;;;14.04;76.02;101276.50;2621611;47;20219;-80
2021/08/27 00:16:22;;;;;;;8.57;2.27;;;;;;;13.99;76.08;101267.88;2621132;54;20123;-80
2021/08/27 00:18:47;;;;;;;2.03;1.60;;;;;;;13.97;75.96;101260.13;2621547;46;20174;-79
2021/08/27 00:21:12;;;;;;;5.13;2.13;;;;;;;13.96;75.99;101267.81;2622597;54;20123;-79
2021/08/27 00:23:38;;;;;;;4.20;2.03;;;;;;;13.97;76.01;101264.38;2621639;46;20691;-80
2021/08/27 00:26:03;;;;;;;4.47;1.87;;;;;;;13.89;75.88;101273.72;2622536;46;20266;-78
2021/08/27 00:28:28;;;;;;;3.53;2.00;;;;;;;13.83;76.39;101266.81;2622313;47;20135;-80
2021/08/27 00:30:57;;;;;;;5.90;1.87;;;;;;;13.93;76.10;101273.78;2622554;54;20139;-81
2021/08/27 00:33:23;;;;;;;3.83;2.03;;;;;;;13.76;76.42;101264.13;2622348;54;20152;-82
2021/08/27 00:35:48;;;;;;;3.87;2.00;;;;;;;13.77;76.80;101266.69;2622055;47;20147;-79
2021/08/27 00:38:15;;;;;;;3.93;2.30;;;;;;;13.73;76.59;101267.53;2622266;46;20135;-79
2021/08/27 00:40:41;;;;;;;4.73;1.90;;;;;;;13.67;76.77;101267.44;2621562;54;20183;-77
2021/08/27 00:43:08;;;;;;;4.43;1.80;;;;;;;13.62;77.02;101275.94;2620667;54;20143;-78
2021/08/27 00:45:34;;;;;;;3.80;2.20;;;;;;;13.60;76.89;101270.78;2621263;39;20850;-79
2021/08/27 00:48:00;;;;;;;6.43;2.10;;;;;;;13.68;77.09;101266.56;2620020;46;20162;-78
2021/08/27 00:50:25;;;;;;;4.67;1.80;;;;;;;13.63;76.88;101270.78;2620151;54;20967;-80
2021/08/27 00:52:50;;;;;;;6.43;2.60;;;;;;;13.67;76.76;101264.84;2620345;54;20161;-78
2021/08/27 00:55:16;;;;;;;4.50;2.20;;;;;;;13.66;77.03;101265.69;2619839;46;20124;-79
2021/08/27 00:57:41;;;;;;;4.33;1.83;;;;;;;13.57;77.60;101262.13;2620401;54;20143;-79
2021/08/27 01:00:07;;;;;;;5.37;2.20;;;;;;;13.59;77.67;101253.63;2620353;54;20190;-79
2021/08/27 01:02:32;;;;;;;5.27;2.10;;;;;;;13.55;77.37;101261.25;2620654;54;20150;-79
2021/08/27 01:04:57;;;;;;;3.97;2.33;;;;;;;13.51;77.45;101255.22;2620596;54;20142;-80
2021/08/27 01:07:30;;;;;;;6.43;2.40;;;;;;;13.47;77.52;101257.69;2619970;54;20658;-79
2021/08/27 01:10:11;;;;;;;5.77;2.43;;;;;;;13.46;77.48;101253.41;2620781;54;20139;-80
2021/08/27 01:12:53;;;;;;;7.13;2.13;;;;;;;13.53;77.27;101252.66;2620309;54;20155;-79
2021/08/27 01:15:27;;;;;;;3.90;2.10;;;;;;;13.51;77.47;101255.22;2620807;54;20126;-78
2021/08/27 01:18:04;;;;;;;4.60;1.93;;;;;;;13.44;77.46;101253.38;2620285;47;20762;-80
2021/08/27 01:21:00;;;;;;;4.87;2.07;;;;;;;13.49;77.29;101250.88;2621191;47;20155;-77
2021/08/27 01:23:45;;;;;;;6.67;2.30;;;;;;;13.46;77.18;101249.13;2621000;54;20174;-78
2021/08/27 01:26:13;;;;;;;5.97;2.50;;;;;;;13.51;76.90;101254.31;2621107;54;20139;-77
2021/08/27 01:28:44;;;;;;;4.63;1.97;;;;;;;13.49;76.93;101245.75;2620360;47;20659;-77
2021/08/27 01:31:25;;;;;;;5.93;2.13;;;;;;;13.52;76.99;101254.34;2621155;54;20138;-76
2021/08/27 01:34:15;;;;;;;6.20;2.27;;;;;;;13.49;76.66;101251.72;2621211;54;20146;-81
2021/08/27 01:36:42;;;;;;;6.10;2.43;;;;;;;13.53;77.09;101242.38;2620399;47;20171;-79
2021/08/27 01:39:11;;;;;;;5.17;2.53;;;;;;;13.49;77.35;101246.59;2620754;54;20232;-79
2021/08/27 01:41:38;;;;;;;4.20;2.40;;;;;;;13.47;77.22;101247.41;2620745;54;20174;-78
2021/08/27 01:44:06;;;;;;;3.73;2.20;;;;;;;13.47;77.00;101247.41;2620217;54;20186;-79
2021/08/27 01:46:34;;;;;;;3.97;2.00;;;;;;;13.49;76.36;101240.59;2618309;39;20558;-78
2021/08/27 01:49:01;;;;;;;6.33;2.27;;;;;;;13.50;76.50;101245.75;2620350;54;20131;-79
2021/08/27 01:51:28;;;;;;;4.17;2.03;;;;;;;13.45;76.63;101239.66;2620593;54;20135;-79
2021/08/27 01:53:54;;;;;;;3.70;2.00;;;;;;;13.50;76.17;101240.63;2620764;54;20678;-78
2021/08/27 01:56:20;;;;;;;3.50;2.03;;;;;;;13.45;76.18;101247.38;2620297;54;20655;-79
2021/08/27 01:58:46;;;;;;;7.33;2.80;;;;;;;13.47;76.33;101244.84;2620257;54;20234;-79
2021/08/27 02:01:12;;;;;;;4.57;2.27;;;;;;;13.46;76.15;101238.84;2620819;54;20214;-79
2021/08/27 02:03:38;;;;;;;5.33;2.40;;;;;;;13.48;75.94;101237.13;2620804;54;20159;-79
2021/08/27 02:06:03;;;;;;;4.90;2.30;;;;;;;13.50;75.97;101235.47;2619857;54;20147;-79
2021/08/27 02:08:31;;;;;;;3.27;1.80;;;;;;;13.49;76.02;101235.44;2619665;54;20119;-78
2021/08/27 02:10:57;;;;;;;3.30;1.93;;;;;;;13.54;75.93;101226.06;2621558;54;20131;-81
2021/08/27 02:13:23;;;;;;;5.73;2.37;;;;;;;13.40;76.24;101232.75;2622445;54;20782;-81
2021/08/27 02:15:49;;;;;;;6.17;2.30;;;;;;;13.41;76.33;101226.75;2624265;54;20135;-80
2021/08/27 02:18:15;;;;;;;4.53;2.13;;;;;;;13.44;76.02;101227.66;2621209;54;20142;-79
2021/08/27 02:20:40;;;;;;;3.63;2.07;;;;;;;13.40;76.07;101243.03;2621020;54;20135;-80
2021/08/27 02:23:07;;;;;;;6.80;2.30;;;;;;;13.40;75.97;101236.16;2621113;54;20136;-80
2021/08/27 02:25:35;;;;;;;6.33;2.13;;;;;;;13.43;75.93;101225.94;2622620;54;20132;-80
2021/08/27 02:28:02;;;;;;;3.83;1.80;;;;;;;13.41;75.93;101234.47;2622282;54;20134;-80
2021/08/27 02:30:30;;;;;;;5.77;2.27;;;;;;;13.42;75.80;101233.63;2622681;54;20176;-80
2021/08/27 02:32:58;;;;;;;4.67;2.20;;;;;;;13.41;76.21;101231.91;2622992;54;20151;-80
2021/08/27 02:35:24;;;;;;;4.17;2.27;;;;;;;13.44;75.91;101234.53;2623406;54;20162;-79
2021/08/27 02:37:50;;;;;;;8.80;2.77;;;;;;;13.40;76.10;101233.59;2621855;54;20135;-78
2021/08/27 02:40:15;;;;;;;5.70;2.40;;;;;;;13.42;75.59;101237.06;2621796;54;20202;-80
2021/08/27 02:42:41;;;;;;;8.00;2.00;;;;;;;13.40;75.90;101232.75;2622688;39;20531;-79
2021/08/27 02:45:07;;;;;;;6.57;2.50;;;;;;;13.44;75.78;101226.81;2620934;54;20156;-78
2021/08/27 02:47:33;;;;;;;6.00;2.17;;;;;;;13.47;75.86;101221.69;2621224;54;20131;-78
2021/08/27 02:49:58;;;;;;;4.33;2.10;;;;;;;13.43;76.21;101215.63;2620877;46;20140;-80
2021/08/27 02:52:32;;;;;;;4.53;1.70;;;;;;;13.44;75.83;101224.22;2621151;54;20123;-79
2021/08/27 02:55:03;;;;;;;5.87;2.27;;;;;;;13.43;75.60;101217.31;2620607;54;20759;-78
2021/08/27 02:57:35;;;;;;;3.73;2.20;;;;;;;13.53;75.73;101219.22;2618476;47;20131;-78
2021/08/27 03:00:01;;;;;;;4.73;2.30;;;;;;;13.47;75.80;101216.53;2618997;54;20128;-79
2021/08/27 03:02:27;;;;;;;5.30;2.43;;;;;;;13.42;75.69;101216.50;2618931;54;20640;-77
2021/08/27 03:05:03;;;;;;;4.97;2.30;;;;;;;13.45;75.50;101213.94;2619164;54;20219;-78
2021/08/27 03:07:29;;;;;;;5.80;2.37;;;;;;;13.44;75.97;101204.50;2618528;54;20227;-78
2021/08/27 03:10:11;;;;;;;4.13;2.33;;;;;;;13.49;75.36;101207.16;2619313;54;20120;-78
2021/08/27 03:12:53;;;;;;;5.33;2.33;;;;;;;13.41;75.79;101199.31;2618882;54;20151;-78
2021/08/27 03:15:28;;;;;;;5.60;2.07;;;;;;;13.42;75.79;101206.19;2620893;39;20590;-80
2021/08/27 03:17:58;;;;;;;5.13;2.17;;;;;;;13.47;75.65;101198.53;2622085;54;20155;-80
2021/08/27 03:20:37;;;;;;;5.03;2.47;;;;;;;13.55;75.36;101191.78;2621264;47;20683;-79
2021/08/27 03:23:07;;;;;;;6.50;1.97;;;;;;;13.47;75.83;101191.69;2623149;54;20159;-81
2021/08/27 03:25:39;;;;;;;8.23;2.70;;;;;;;13.47;75.53;101188.22;2624018;39;20936;-80
2021/08/27 03:28:10;;;;;;;4.27;2.20;;;;;;;13.49;75.89;101187.41;2623047;54;20676;-81
2021/08/27 03:30:36;;;;;;;5.03;2.10;;;;;;;13.51;75.43;101190.00;2623651;54;20142;-80
2021/08/27 03:33:06;;;;;;;6.10;2.00;;;;;;;13.51;75.83;101190.88;2623550;54;20140;-81
2021/08/27 03:35:32;;;;;;;3.93;1.80;;;;;;;13.64;75.96;101184.19;2623785;54;20138;-81
2021/08/27 03:37:59;;;;;;;4.20;2.00;;;;;;;13.63;75.51;101174.72;2622425;54;20131;-79
2021/08/27 03:40:26;;;;;;;4.73;2.07;;;;;;;13.59;75.40;101184.13;2620647;54;20191;-81
2021/08/27 03:42:52;;;;;;;5.50;2.20;;;;;;;13.60;75.45;101180.72;2620402;54;20961;-80
2021/08/27 03:45:21;;;;;;;6.57;2.43;;;;;;;13.68;75.42;101175.66;2619198;54;20123;-79
2021/08/27 03:47:47;;;;;;;5.17;2.03;;;;;;;13.63;75.73;101183.31;2620105;54;20155;-79
2021/08/27 03:50:13;;;;;;;8.73;2.57;;;;;;;13.67;75.73;101171.34;2620059;54;20131;-77
2021/08/27 03:52:41;;;;;;;6.20;2.17;;;;;;;13.52;77.55;101171.16;2619592;47;20155;-81
2021/08/27 03:55:10;;;;;;;6.73;3.03;;;;;;;13.52;78.57;101171.16;2620439;54;20924;-79
2021/08/27 03:57:36;;;;;;;7.80;2.67;;;;;;;13.34;79.74;101169.19;2620261;39;20540;-78
2021/08/27 04:00:03;;;;;;;5.80;2.17;;;;;;;13.21;80.19;101169.88;2618448;54;20230;-79
2021/08/27 04:02:28;;;;;;;4.47;2.30;;;;;;;13.29;79.50;101176.00;2617900;54;20131;-79
2021/08/27 04:05:13;;;;;;;6.50;1.93;;;;;;;13.35;79.62;101177.81;2619209;39;20536;-78
2021/08/27 04:07:40;;;;;;;7.53;2.90;;;;;;;13.23;79.44;101173.34;2619309;47;20219;-78
2021/08/27 04:10:07;;;;;;;6.70;2.63;;;;;;;13.26;79.56;101175.09;2619109;51;20231;-78
2021/08/27 04:12:33;;;;;;;6.73;2.57;;;;;;;13.18;80.16;101174.13;2620010;54;20772;-78
2021/08/27 04:14:58;;;;;;;5.57;2.30;;;;;;;13.18;80.27;101164.72;2619853;54;20135;-79
2021/08/27 04:17:24;;;;;;;4.67;2.57;;;;;;;13.15;80.45;101176.63;2619185;47;20132;-79
2021/08/27 04:19:49;;;;;;;5.33;2.57;;;;;;;13.15;80.37;101174.06;2620713;54;20142;-80
2021/08/27 04:22:14;;;;;;;9.97;3.63;;;;;;;13.15;80.35;101174.06;2619816;54;20139;-79
2021/08/27 04:24:39;;;;;;;8.13;3.00;;;;;;;13.15;80.67;101167.22;2619014;54;20151;-78
2021/08/27 04:27:05;;;;;;;4.10;2.03;;;;;;;13.24;80.34;101171.63;2619176;47;20243;-79
2021/08/27 04:29:30;;;;;;;5.60;2.10;;;;;;;13.16;80.40;101165.53;2618706;54;20166;-79
2021/08/27 04:31:58;;;;;;;7.57;2.63;;;;;;;13.22;80.57;101168.19;2619474;54;20231;-78
2021/08/27 04:34:24;;;;;;;5.90;2.63;;;;;;;13.22;80.24;101163.03;2618234;54;20159;-79
2021/08/27 04:36:49;;;;;;;8.10;2.40;;;;;;;13.24;79.85;101169.06;2620925;39;20540;-80
2021/08/27 04:39:15;;;;;;;4.97;2.40;;;;;;;13.27;80.39;101156.25;2618911;54;20151;-79
2021/08/27 04:41:40;;;;;;;5.30;2.50;;;;;;;13.17;80.50;101162.13;2619934;39;20551;-78
2021/08/27 04:44:05;;;;;;;7.70;2.23;;;;;;;13.17;80.77;101155.25;2619189;54;20177;-77
2021/08/27 04:46:31;;;;;;;7.70;2.63;;;;;;;13.16;80.87;101161.25;2618575;54;20670;-78
2021/08/27 04:48:56;;;;;;;6.20;2.47;;;;;;;13.21;80.63;101159.59;2621003;54;20188;-79
2021/08/27 04:51:21;;;;;;;4.43;2.40;;;;;;;13.19;80.89;101162.97;2620099;47;20139;-78
2021/08/27 04:53:46;;;;;;;6.23;2.13;;;;;;;13.13;80.91;101160.34;2620725;54;20143;-79
2021/08/27 04:56:12;;;;;;;8.27;2.40;;;;;;;13.17;81.26;101156.97;2620695;54;20716;-78
2021/08/27 04:58:37;;;;;;;5.53;2.70;;;;;;;13.15;81.75;101156.06;2619490;47;20142;-78
2021/08/27 05:01:02;;;;;;;4.00;2.50;;;;;;;13.25;81.01;101156.22;2619974;46;20132;-79
2021/08/27 05:03:27;;;;;;;6.50;2.80;;;;;;;13.26;80.97;101159.66;2619553;54;20958;-77
2021/08/27 05:05:53;;;;;;;6.77;2.20;;;;;;;13.26;80.69;101162.25;2620429;54;20128;-78
2021/08/27 05:08:18;;;;;;;6.50;2.37;;;;;;;13.21;80.72;101161.31;2619390;54;20112;-78
2021/08/27 05:10:43;;;;;;;3.57;1.90;;;;;;;13.27;80.76;101158.81;2620280;54;20166;-80
2021/08/27 05:13:08;;;;;;;6.63;2.53;;;;;;;13.25;81.13;101163.09;2620590;46;20139;-77
2021/08/27 05:15:34;;;;;;;8.30;2.80;;;;;;;13.33;81.07;101169.19;2619893;54;20120;-79
2021/08/27 05:17:59;;;;;;;6.57;2.13;;;;;;;13.37;81.00;101169.25;2619958;54;20128;-78
2021/08/27 05:20:25;;;;;;;5.83;3.10;;;;;;;13.35;81.14;101168.34;2619157;54;20152;-77
2021/08/27 05:22:50;;;;;;;8.23;2.53;;;;;;;13.32;81.56;101178.63;2620230;54;20158;-79
2021/08/27 05:25:15;;;;;;;4.67;2.00;;;;;;;13.39;81.19;101175.28;2622762;47;20120;-78
2021/08/27 05:27:40;;;;;;;5.57;2.30;;;;;;;13.43;81.67;101173.59;2618493;46;20136;-78
2021/08/27 05:30:08;;;;;;;7.17;2.57;;;;;;;13.37;82.44;101171.81;2619273;47;20171;-78
2021/08/27 05:32:33;;;;;;;7.77;2.57;;;;;;;13.33;82.59;101172.63;2620989;54;20140;-79
2021/08/27 05:34:58;;;;;;;7.40;2.27;;;;;;;13.30;83.32;101166.59;2620294;47;20142;-79
2021/08/27 05:37:24;;;;;;;7.60;2.57;;;;;;;13.35;83.62;101177.81;2620856;54;20243;-79
2021/08/27 05:39:50;;;;;;;8.13;2.47;;;;;;;13.25;83.50;101173.38;2620599;54;20167;-79
2021/08/27 05:42:15;;;;;;;5.43;2.30;;;;;;;13.30;83.51;101171.72;2621073;54;20123;-79
2021/08/27 05:44:41;;;;;;;6.07;2.17;;;;;;;13.41;83.61;101175.31;2620951;54;20180;-79
2021/08/27 05:47:06;;;;;;;5.57;2.40;;;;;;;13.44;83.68;101167.63;2620802;47;20127;-79
2021/08/27 05:49:33;;;;;;;5.90;2.30;;;;;;;13.52;83.24;101178.84;2621140;54;20127;-79
2021/08/27 05:51:58;;;;;;;5.43;2.40;;;;;;;13.55;83.87;101173.78;2621347;39;20535;-79
2021/08/27 05:54:24;;;;;;;5.70;2.20;;;;;;;13.66;83.57;101179.91;2620734;46;20143;-80
2021/08/27 05:56:49;;;;;;;5.43;2.40;;;;;;;13.67;84.10;101174.78;2619931;46;20120;-79
2021/08/27 05:59:14;;;;;;;5.13;2.23;;;;;;;13.65;84.01;101184.19;2621447;54;20157;-80
2021/08/27 06:01:40;;;;;;;5.03;2.20;;;;;;;13.72;83.91;101180.84;2620348;47;20540;-79
2021/08/27 06:04:06;;;;;;;4.80;2.40;;;;;;;13.82;84.51;101179.25;2621372;54;20136;-80
2021/08/27 06:06:32;;;;;;;5.20;1.83;;;;;;;13.93;83.83;101187.94;2620043;51;20179;-79
2021/08/27 06:08:57;;;;;;;7.77;2.30;;;;;;;14.03;83.33;101176.91;2620999;54;20152;-79
2021/08/27 06:11:22;;;;;;;6.10;2.00;;;;;;;14.04;83.87;101189.78;2620964;54;20135;-79
2021/08/27 06:13:48;;;;;;;4.87;1.90;;;;;;;14.03;84.11;101182.06;2619700;54;20159;-78
2021/08/27 06:16:13;;;;;;;3.93;2.00;;;;;;;14.10;84.51;101184.72;2620361;54;20234;-80
2021/08/27 06:18:38;;;;;;;5.73;2.20;;;;;;;14.22;84.14;101184.03;2620361;54;20136;-79
2021/08/27 06:21:03;;;;;;;6.27;2.03;;;;;;;14.21;83.87;101192.56;2619709;47;20147;-79
2021/08/27 06:23:29;;;;;;;3.57;1.60;;;;;;;14.19;84.33;101184.84;2620407;47;20230;-78
2021/08/27 06:25:54;;;;;;;3.27;1.70;;;;;;;14.29;84.12;101188.38;2620550;47;20153;-80
2021/08/27 06:28:19;;;;;;;3.30;1.70;;;;;;;14.35;83.39;101189.31;2620493;54;20130;-78
2021/08/27 06:30:45;;;;;;;3.23;1.80;;;;;;;14.37;83.63;101191.91;2620452;54;20120;-80
2021/08/27 06:33:10;;;;;;;4.13;1.93;;;;;;;14.47;83.44;101192.00;2621154;54;20160;-80
2021/08/27 06:35:36;;;;;;;2.87;1.40;;;;;;;14.42;83.59;101196.25;2619738;54;20116;-79
2021/08/27 06:40:47;;;;;;;1.97;1.30;;;;;;;14.45;83.67;101193.69;2619063;54;20151;-78
2021/08/27 06:43:13;;;;;;;3.20;1.70;;;;;;;14.58;84.07;101197.22;2630073;36;20198;-79
2021/08/27 06:45:38;;;;;;;2.83;1.57;;;;;;;14.70;83.93;101195.66;2619575;54;20159;-78
2021/08/27 06:48:04;;;;;;;3.00;1.60;;;;;;;14.62;83.88;101196.41;2620080;54;20136;-79
2021/08/27 06:50:29;;;;;;;3.83;1.63;;;;;;;14.79;83.80;101193.16;2619705;54;20681;-79
2021/08/27 06:52:56;;;;;;;2.67;1.73;;;;;;;14.65;83.83;101186.97;2620095;39;20832;-78
2021/08/27 06:55:21;;;;;;;2.70;1.40;;;;;;;14.69;84.18;101191.31;2619138;54;20134;-78
2021/08/27 06:57:46;;;;;;;3.10;1.40;;;;;;;14.87;84.16;101185.47;2620485;39;20619;-79
2021/08/27 07:00:12;;;;;;;2.63;1.60;;;;;;;15.13;83.49;101186.50;2620341;46;20142;-78
2021/08/27 07:02:37;;;;;;;2.50;1.30;;;;;;;15.24;82.83;101196.03;2619571;54;20183;-79
2021/08/27 07:05:03;;;;;;;2.17;1.20;;;;;;;15.44;82.58;101194.47;2619910;54;20131;-80
2021/08/27 07:07:29;;;;;;;2.90;1.80;;;;;;;15.79;82.57;101192.06;2619963;54;20551;-80
2021/08/27 07:09:54;;;;;;;2.97;1.57;;;;;;;15.83;80.94;101192.06;2619802;54;20142;-80
2021/08/27 07:12:19;;;;;;;3.07;1.70;;;;;;;15.84;80.42;101193.78;2620630;46;20195;-79
2021/08/27 07:14:49;;;;;;;2.27;1.20;;;;;;;15.89;80.47;101206.72;2618928;47;20135;-79
2021/08/27 07:17:14;;;;;;;2.03;1.20;;;;;;;15.94;79.70;101202.44;2621490;54;20154;-78
2021/08/27 07:19:40;;;;;;;3.17;1.27;;;;;;;15.99;80.11;101211.94;2617458;39;20546;-79
2021/08/27 07:22:05;;;;;;;2.33;1.10;;;;;;;15.86;79.81;101209.28;2618921;54;20143;-78
2021/08/27 07:24:30;;;;;;;2.50;1.30;;;;;;;15.76;81.07;101212.69;2620080;54;20562;-81
2021/08/27 07:26:55;;;;;;;1.70;1.33;;;;;;;15.73;81.00;101207.50;2621403;54;20146;-79
2021/08/27 07:29:20;;;;;;;1.93;1.20;;;;;;;15.55;81.12;101213.44;2620477;46;20131;-78
2021/08/27 07:31:46;;;;;;;3.50;1.23;;;;;;;15.71;81.06;101215.22;2619931;54;20675;-80
2021/08/27 07:34:11;;;;;;;3.07;1.37;;;;;;;15.72;80.75;101217.00;2619627;54;20182;-78
2021/08/27 07:36:37;;;;;;;3.27;1.00;;;;;;;15.78;80.43;101210.97;2618419;54;20186;-77
2021/08/27 07:39:03;;;;;;;2.50;1.40;;;;;;;15.69;80.69;101216.97;2619464;54;20131;-79
2021/08/27 07:41:28;;;;;;;2.60;1.10;;;;;;;15.71;80.46;101224.72;2646686;36;20728;-78
2021/08/27 07:43:54;;;;;;;2.90;1.10;;;;;;;15.84;79.55;101218.75;2621700;54;20162;-79
2021/08/27 07:46:19;;;;;;;2.23;1.20;;;;;;;15.91;79.65;101217.91;2620483;39;20533;-78
2021/08/27 07:48:44;;;;;;;3.37;1.60;;;;;;;15.99;80.61;101219.69;2619316;47;20143;-77
2021/08/27 07:51:09;;;;;;;3.83;1.30;;;;;;;16.14;79.74;101222.31;2620855;54;20679;-79
2021/08/27 07:53:35;;;;;;;2.67;1.07;;;;;;;16.13;79.66;101222.28;2620450;54;20163;-79
2021/08/27 07:56:00;;;;;;;1.73;1.30;;;;;;;16.16;79.63;101224.91;2620059;54;20135;-80
2021/08/27 07:58:25;;;;;;;3.40;1.20;;;;;;;16.25;79.70;101232.69;2620622;47;20142;-78
2021/08/27 08:00:50;;;;;;;1.90;1.00;;;;;;;16.39;79.21;101229.25;2620520;47;20176;-78
2021/08/27 08:03:16;;;;;;;2.07;1.00;;;;;;;16.31;78.93;101222.34;2621228;54;20143;-79
2021/08/27 08:05:41;;;;;;;1.77;1.23;;;;;;;16.43;78.78;101233.59;2620443;54;20163;-79
2021/08/27 08:08:06;;;;;;;1.93;1.00;;;;;;;16.37;78.50;101233.56;2621481;47;20135;-79
2021/08/27 08:10:31;;;;;;;2.80;1.10;;;;;;;16.49;76.70;101231.00;2621367;39;20179;-80
2021/08/27 08:12:57;;;;;;;1.87;1.00;;;;;;;16.63;75.86;101233.63;2620791;54;20146;-81
2021/08/27 08:15:26;;;;;;;0.90;0.80;;;;;;;16.64;76.81;101240.53;2620596;54;20123;-80
2021/08/27 08:17:51;;;;;;;1.00;0.83;;;;;;;16.86;76.14;101237.94;2621323;54;20640;-79
2021/08/27 08:20:16;;;;;;;1.20;0.87;;;;;;;17.32;74.76;101229.28;2621919;47;20142;-79
2021/08/27 08:22:42;;;;;;;1.60;0.90;;;;;;;17.53;73.39;101239.66;2622441;46;20151;-80
2021/08/27 08:25:08;;;;;;;2.23;1.00;;;;;;;18.13;71.82;101239.41;2622533;54;20123;-79
2021/08/27 08:27:35;;;;;;;0.97;0.70;;;;;;;18.47;69.99;101237.53;2623050;39;20553;-79
2021/08/27 08:30:02;;;;;;;2.60;0.70;;;;;;;19.17;67.44;101234.34;2623069;54;20655;-80
2021/08/27 08:32:28;;;;;;;1.93;0.80;;;;;;;19.49;67.82;101240.13;2622613;54;20135;-80
2021/08/27 08:34:53;;;;;;;1.07;0.60;;;;;;;19.62;65.68;101235.69;2621941;54;20127;-79
2021/08/27 08:37:18;;;;;;;0.93;0.70;;;;;;;19.43;66.75;101236.75;2622968;54;20747;-80
2021/08/27 08:39:44;;;;;;;1.97;0.90;;;;;;;19.32;65.27;101238.59;2623187;54;20155;-80
2021/08/27 08:42:09;;;;;;;1.67;0.80;;;;;;;18.64;67.00;101236.53;2656494;36;20194;-80
2021/08/27 08:44:34;;;;;;;1.03;0.80;;;;;;;18.50;67.26;101243.56;2623276;54;20163;-79
2021/08/27 08:47:02;;;;;;;2.83;1.10;;;;;;;18.53;68.68;101247.84;2623505;54;20135;-78
2021/08/27 08:49:29;;;;;;;1.90;0.87;;;;;;;18.46;68.14;101249.63;2622259;47;20146;-79
2021/08/27 08:51:55;;;;;;;1.73;0.90;;;;;;;18.16;68.96;101251.50;2623248;54;20120;-79
2021/08/27 08:54:21;;;;;;;0.83;0.60;;;;;;;18.61;67.86;101252.13;2622751;54;20171;-79
2021/08/27 08:56:46;;;;;;;1.80;0.77;;;;;;;19.08;67.71;101254.38;2623013;54;20128;-79
2021/08/27 08:59:13;;;;;;;2.57;0.87;;;;;;;19.09;66.66;101250.88;2622653;54;20150;-79
2021/08/27 09:01:38;;;;;;;1.77;0.87;;;;;;;19.11;66.60;101247.41;2623115;54;20120;-79
2021/08/27 09:04:04;;;;;;;1.57;0.90;;;;;;;19.18;67.08;101251.69;2623985;54;20154;-80
2021/08/27 09:06:30;;;;;;;1.63;0.67;;;;;;;19.07;65.89;101256.09;2621647;54;20162;-78
2021/08/27 09:08:59;;;;;;;0.63;0.60;;;;;;;18.71;67.56;101252.94;2621128;54;20122;-79
2021/08/27 09:11:26;;;;;;;1.00;0.70;;;;;;;18.83;66.44;101245.06;2623238;54;20123;-80
2021/08/27 09:13:54;;;;;;;1.80;0.80;;;;;;;19.96;64.32;101248.25;2620848;54;20151;-80
2021/08/27 09:16:23;;;;;;;0.90;0.60;;;;;;;20.59;62.55;101243.97;2622737;39;20802;-79
2021/08/27 09:18:50;;;;;;;0.67;0.53;;;;;;;21.24;61.04;101238.56;2620369;54;20128;-78
2021/08/27 09:21:46;;;;;;;1.87;0.63;;;;;;;21.72;58.65;101233.31;2621167;54;20159;-78
2021/08/27 09:24:12;;;;;;;2.30;0.90;;;;;;;22.11;57.31;101235.09;2620454;47;20708;-79
2021/08/27 09:26:38;;;;;;;1.03;0.83;;;;;;;21.87;56.47;101237.34;2621507;47;20174;-77
2021/08/27 09:29:04;;;;;;;0.60;0.60;;;;;;;21.39;58.42;101244.38;2621664;39;20581;-78
2021/08/27 09:31:34;;;;;;;3.10;0.90;;;;;;;20.62;59.41;101242.16;2620335;54;20147;-79
2021/08/27 09:33:59;;;;;;;2.40;0.70;;;;;;;20.83;60.31;101248.78;2621139;54;20143;-79
2021/08/27 09:36:25;;;;;;;2.00;0.77;;;;;;;20.64;59.22;101252.56;2626673;54;20162;-80
2021/08/27 09:39:09;;;;;;;1.53;0.83;;;;;;;20.84;58.82;101255.69;2634070;39;20651;-80
2021/08/27 09:41:35;;;;;;;1.80;0.70;;;;;;;20.88;59.77;101259.97;2629730;54;20127;-81
2021/08/27 09:44:01;;;;;;;1.67;1.00;;;;;;;20.92;57.80;101249.50;2664217;36;20237;-80
2021/08/27 09:46:45;;;;;;;1.50;0.70;;;;;;;21.05;57.21;101252.78;2629243;47;20124;-80
2021/08/27 09:49:32;;;;;;;1.47;0.50;;;;;;;21.79;56.45;101254.94;2629610;54;20139;-81
2021/08/27 09:51:59;;;;;;;0.87;0.60;;;;;;;21.49;54.97;101252.84;2629156;47;20135;-79
2021/08/27 09:54:30;;;;;;;0.80;0.60;;;;;;;21.34;55.98;101256.63;2629636;54;20151;-79
2021/08/27 09:57:01;;;;;;;1.83;0.80;;;;;;;20.97;58.72;101265.06;2629299;54;20146;-80
2021/08/27 09:59:50;;;;;;;1.03;0.60;;;;;;;20.84;57.97;101266.13;2629944;54;20143;-79
2021/08/27 10:02:36;;;;;;;1.23;0.67;;;;;;;20.63;58.50;101266.47;2629302;54;20142;-79
2021/08/27 10:05:02;;;;;;;0.70;0.70;;;;;;;20.98;58.73;101262.47;2629715;54;20139;-79
2021/08/27 10:07:31;;;;;;;1.50;0.90;;;;;;;21.41;56.37;101276.47;2629329;46;20134;-80
2021/08/27 10:09:58;;;;;;;0.87;0.60;;;;;;;21.62;56.24;101288.25;2629823;54;20127;-80
2021/08/27 10:12:28;;;;;;;1.40;0.80;;;;;;;21.06;56.13;101281.41;2629702;47;20142;-81
2021/08/27 10:14:54;;;;;;;1.47;0.60;;;;;;;21.14;57.48;101281.31;2629367;47;20127;-80
2021/08/27 10:17:20;;;;;;;0.80;0.67;;;;;;;21.10;57.69;101285.69;2628604;54;20142;-80
2021/08/27 10:19:45;;;;;;;1.00;0.70;;;;;;;21.14;57.91;101289.13;2628877;54;20112;-80
2021/08/27 10:22:11;;;;;;;1.37;0.80;;;;;;;21.83;57.87;101286.13;2629245;54;20136;-79
2021/08/27 10:24:37;;;;;;;0.90;0.70;;;;;;;23.04;53.71;101281.72;2629383;54;20177;-80
2021/08/27 10:27:07;;;;;;;1.03;0.50;;;;;;;23.88;52.68;101281.25;2629087;54;20139;-80
2021/08/27 10:29:33;;;;;;;0.70;0.60;;;;;;;24.06;51.00;101268.56;2630736;39;20901;-80
2021/08/27 10:31:59;;;;;;;1.90;0.80;;;;;;;23.57;50.38;101270.78;2628880;54;20134;-81
2021/08/27 10:34:43;;;;;;;0.90;0.80;;;;;;;23.36;51.71;101270.47;2629342;54;20139;-82
2021/08/27 10:37:09;;;;;;;1.00;0.70;;;;;;;23.22;51.10;101270.84;2628609;54;20180;-81
2021/08/27 10:39:40;;;;;;;1.60;0.63;;;;;;;23.29;50.34;101263.72;2629330;54;20139;-80
2021/08/27 10:42:06;;;;;;;1.55;0.60;;;;;;;24.13;49.74;101267.44;2662478;36;20227;-81
2021/08/27 10:44:51;;;;;;;0.60;0.60;;;;;;;24.00;52.07;101263.50;2628816;47;20163;-81
2021/08/27 10:47:18;;;;;;;2.92;0.90;;;;;;;24.79;48.72;101256.72;2629207;54;20138;-81
2021/08/27 10:49:46;;;;;;;1.63;0.80;;;;;;;25.54;45.53;101262.03;2629680;39;20732;-81
2021/08/27 10:52:33;;;;;;;1.13;0.60;;;;;;;25.82;44.69;101262.75;2630146;39;20656;-80
2021/08/27 10:55:09;;;;;;;2.42;0.68;;;;;;;26.64;43.35;101257.00;2629426;54;21001;-80
2021/08/27 10:57:57;;;;;;;1.75;0.57;;;;;;;26.72;42.66;101259.31;2629187;47;20179;-80
2021/08/27 11:00:34;;;;;;;1.15;0.60;;;;;;;26.91;42.53;101255.03;2629408;54;20183;-80
2021/08/27 11:03:00;;;;;;;1.92;1.08;;;;;;;27.14;40.31;101265.44;2628596;54;20143;-79
2021/08/27 11:05:50;;;;;;;0.95;0.50;;;;;;;26.76;42.20;101259.13;2629026;54;20131;-82
2021/08/27 11:08:31;;;;;;;0.70;0.50;;;;;;;27.18;41.72;101267.03;2629784;54;20135;-81
2021/08/27 11:11:18;;;;;;;0.77;0.50;;;;;;;26.55;43.91;101269.59;2629086;54;20119;-81
2021/08/27 11:13:43;;;;;;;0.60;0.60;;;;;;;25.55;47.33;101271.63;2629159;54;20159;-80
2021/08/27 11:16:21;;;;;;;1.35;0.80;;;;;;;24.92;49.47;101284.25;2627907;47;20647;-80
2021/08/27 11:18:47;;;;;;;0.93;0.73;;;;;;;24.23;49.34;101278.53;2626985;46;20150;-80
2021/08/27 11:21:35;;;;;;;1.25;0.95;;;;;;;23.21;52.57;101282.19;2627789;54;20651;-81
2021/08/27 11:24:18;;;;;;;2.95;0.90;;;;;;;22.03;56.33;101288.34;2628174;47;20171;-80
2021/08/27 11:26:48;;;;;;;4.30;0.90;;;;;;;21.85;57.27;101289.56;2627703;54;20191;-79
2021/08/27 11:29:30;;;;;;;1.48;0.80;;;;;;;21.72;57.81;101292.44;2627908;47;20159;-79
2021/08/27 11:31:55;;;;;;;1.38;1.00;;;;;;;21.48;60.19;101304.16;2628437;54;20655;-79